createdAt,value
2023-02-23T00:01:20.232Z,9.77
2023-02-23T00:03:48.744Z,10.60
2023-02-23T00:06:16.874Z,9.90
2023-02-23T00:08:43.658Z,12.97
2023-02-23T00:11:12.205Z,11.57
2023-02-23T00:13:39.515Z,12.67
2023-02-23T00:16:12.601Z,9.03
2023-02-23T00:18:48.471Z,10.07
2023-02-23T00:21:16.520Z,10.33
2023-02-23T00:23:47.818Z,10.90
2023-02-23T00:26:14.714Z,11.13
2023-02-23T00:28:43.660Z,11.00
2023-02-23T00:31:11.638Z,12.00
2023-02-23T00:33:39.286Z,13.80
2023-02-23T00:36:10.301Z,10.00
2023-02-23T00:38:39.851Z,11.87
2023-02-23T00:41:12.454Z,10.50
2023-02-23T00:43:47.772Z,8.87
2023-02-23T00:46:18.506Z,10.00
2023-02-23T00:48:46.103Z,8.33
2023-02-23T00:51:13.364Z,12.00
2023-02-23T00:53:41.022Z,12.40
2023-02-23T00:56:10.970Z,11.33
2023-02-23T00:58:38.129Z,10.20
2023-02-23T01:01:10.321Z,12.93
2023-02-23T01:03:38.367Z,10.83
2023-02-23T01:06:07.155Z,9.80
2023-02-23T01:08:34.333Z,10.93
2023-02-23T01:11:07.639Z,10.83
2023-02-23T01:13:34.326Z,9.50
2023-02-23T01:16:08.168Z,9.77
2023-02-23T01:18:35.704Z,10.57
2023-02-23T01:21:05.593Z,14.80
2023-02-23T01:23:32.747Z,12.00
2023-02-23T01:25:59.637Z,11.93
2023-02-23T01:28:26.301Z,10.17
2023-02-23T01:30:53.164Z,13.60
2023-02-23T01:33:19.946Z,10.57
2023-02-23T01:35:57.400Z,7.70
2023-02-23T01:38:23.945Z,9.10
2023-02-23T01:40:50.726Z,12.27
2023-02-23T01:43:25.947Z,12.90
2023-02-23T01:45:55.320Z,11.63
2023-02-23T01:48:36.685Z,10.87
2023-02-23T01:51:08.712Z,10.93
2023-02-23T01:53:39.631Z,12.33
2023-02-23T01:56:11.350Z,11.73
2023-02-23T01:58:45.034Z,10.70
2023-02-23T02:01:11.999Z,10.30
2023-02-23T02:03:41.778Z,8.67
2023-02-23T02:06:14.649Z,8.67
2023-02-23T02:08:47.428Z,9.53
2023-02-23T02:11:36.626Z,12.97
2023-02-23T02:14:12.854Z,10.00
2023-02-23T02:17:07.300Z,12.30
2023-02-23T02:19:48.899Z,10.20
2023-02-23T02:22:39.891Z,9.23
2023-02-23T02:25:24.691Z,13.07
2023-02-23T02:28:29.622Z,8.93
2023-02-23T02:31:19.526Z,9.23
2023-02-23T02:33:58.140Z,10.33
2023-02-23T02:36:47.461Z,7.73
2023-02-23T02:39:35.402Z,10.97
2023-02-23T02:42:35.736Z,10.37
2023-02-23T02:45:14.001Z,10.67
2023-02-23T02:47:46.407Z,6.80
2023-02-23T02:50:43.038Z,7.80
2023-02-23T02:53:11.106Z,9.53
2023-02-23T02:55:43.777Z,7.23
2023-02-23T02:58:12.845Z,8.47
2023-02-23T03:01:00.155Z,9.07
2023-02-23T03:03:54.049Z,11.43
2023-02-23T03:06:42.094Z,9.47
2023-02-23T03:09:53.771Z,12.57
2023-02-23T03:12:58.555Z,8.57
2023-02-23T03:15:56.649Z,13.07
2023-02-23T03:18:59.814Z,10.60
2023-02-23T03:21:49.525Z,9.80
2023-02-23T03:24:42.142Z,10.00
2023-02-23T03:27:38.776Z,15.57
2023-02-23T03:30:39.615Z,16.87
2023-02-23T03:33:30.951Z,10.43
2023-02-23T03:36:46.548Z,11.40
2023-02-23T03:39:36.396Z,9.63
2023-02-23T03:42:23.297Z,11.17
2023-02-23T03:45:13.332Z,14.20
2023-02-23T03:48:00.330Z,10.83
2023-02-23T03:50:50.683Z,12.50
2023-02-23T03:53:39.918Z,8.43
2023-02-23T03:56:27.731Z,10.73
2023-02-23T03:59:17.473Z,9.60
2023-02-23T04:02:05.432Z,8.90
2023-02-23T04:04:52.155Z,8.33
2023-02-23T04:07:38.108Z,14.50
2023-02-23T04:10:24.660Z,8.90
2023-02-23T04:13:14.848Z,8.77
2023-02-23T04:16:01.603Z,8.87
2023-02-23T04:18:31.618Z,11.43
2023-02-23T04:21:00.101Z,9.50
2023-02-23T04:23:27.731Z,10.97
2023-02-23T04:25:55.591Z,11.13
2023-02-23T04:28:24.115Z,12.77
2023-02-23T04:30:52.724Z,10.70
2023-02-23T04:33:21.993Z,10.13
2023-02-23T04:35:49.090Z,9.93
2023-02-23T04:38:16.034Z,16.03
2023-02-23T04:40:42.766Z,12.53
2023-02-23T04:43:12.456Z,11.23
2023-02-23T04:45:39.293Z,11.10
2023-02-23T04:48:05.962Z,11.27
2023-02-23T04:50:32.716Z,11.03
2023-02-23T04:52:59.504Z,13.93
2023-02-23T04:55:26.374Z,10.63
2023-02-23T04:57:57.915Z,17.20
2023-02-23T05:00:24.624Z,12.83
2023-02-23T05:02:51.323Z,12.60
2023-02-23T05:05:17.906Z,10.53
2023-02-23T05:07:44.351Z,12.17
2023-02-23T05:10:11.382Z,12.10
2023-02-23T05:12:37.879Z,11.67
2023-02-23T05:15:04.773Z,14.57
2023-02-23T05:17:31.225Z,15.70
2023-02-23T05:19:57.679Z,13.57
2023-02-23T05:22:24.155Z,12.87
2023-02-23T05:24:50.604Z,13.83
2023-02-23T05:27:17.786Z,18.90
2023-02-23T05:29:44.632Z,14.00
2023-02-23T05:32:11.279Z,12.30
2023-02-23T05:34:39.128Z,11.70
2023-02-23T05:37:05.916Z,14.70
2023-02-23T05:39:32.467Z,15.47
2023-02-23T05:41:58.922Z,15.27
2023-02-23T05:44:25.434Z,14.23
2023-02-23T05:46:51.968Z,14.73
2023-02-23T05:49:18.455Z,14.83
2023-02-23T05:51:44.956Z,12.07
2023-02-23T05:54:11.472Z,12.43
2023-02-23T05:56:38.099Z,14.13
2023-02-23T05:59:04.827Z,14.47
2023-02-23T06:01:32.138Z,12.23
2023-02-23T06:03:58.644Z,12.13
2023-02-23T06:06:25.736Z,12.57
2023-02-23T06:08:55.518Z,11.37
2023-02-23T06:11:22.477Z,14.17
2023-02-23T06:13:49.036Z,13.47
2023-02-23T06:16:15.857Z,14.50
2023-02-23T06:18:42.435Z,13.33
2023-02-23T06:21:08.923Z,9.80
2023-02-23T06:23:35.492Z,9.37
2023-02-23T06:26:02.049Z,8.87
2023-02-23T06:28:28.802Z,12.87
2023-02-23T06:30:56.015Z,14.77
2023-02-23T06:33:22.697Z,10.50
2023-02-23T06:35:50.232Z,13.43
2023-02-23T06:38:16.745Z,14.40
2023-02-23T06:40:43.350Z,10.80
2023-02-23T06:43:10.189Z,10.93
2023-02-23T06:45:36.756Z,10.93
2023-02-23T06:48:03.905Z,12.00
2023-02-23T06:50:30.435Z,13.90
2023-02-23T06:52:57.553Z,11.77
2023-02-23T06:55:24.315Z,12.53
2023-02-23T06:57:51.838Z,13.33
2023-02-23T07:00:18.737Z,13.07
2023-02-23T07:02:45.795Z,11.73
2023-02-23T07:05:12.301Z,16.90
2023-02-23T07:07:38.903Z,14.07
2023-02-23T07:10:06.226Z,11.53
2023-02-23T07:12:32.845Z,10.37
2023-02-23T07:14:59.316Z,14.13
2023-02-23T07:17:25.773Z,14.07
2023-02-23T07:19:52.268Z,11.73
2023-02-23T07:22:18.710Z,13.17
2023-02-23T07:24:45.193Z,10.40
2023-02-23T07:27:11.650Z,10.80
2023-02-23T07:29:38.126Z,13.77
2023-02-23T07:32:05.485Z,10.70
2023-02-23T07:34:32.012Z,12.57
2023-02-23T07:36:58.485Z,12.40
2023-02-23T07:39:25.618Z,14.40
2023-02-23T07:41:52.118Z,13.53
2023-02-23T07:44:19.114Z,12.10
2023-02-23T07:46:46.422Z,11.10
2023-02-23T07:49:13.848Z,11.33
2023-02-23T07:51:40.872Z,11.00
2023-02-23T07:54:07.374Z,11.90
2023-02-23T07:56:34.058Z,10.07
2023-02-23T07:59:00.518Z,11.00
2023-02-23T08:01:27.014Z,11.20
2023-02-23T08:03:53.521Z,16.93
2023-02-23T08:06:20.395Z,13.80
2023-02-23T08:08:47.175Z,15.30
2023-02-23T08:11:13.895Z,13.53
2023-02-23T08:13:40.509Z,13.40
2023-02-23T08:16:07.370Z,12.23
2023-02-23T08:18:34.341Z,12.97
2023-02-23T08:21:02.166Z,15.80
2023-02-23T08:23:32.844Z,18.73
2023-02-23T08:26:00.184Z,12.90
2023-02-23T08:28:27.794Z,11.33
2023-02-23T08:30:54.715Z,13.43
2023-02-23T08:33:21.652Z,13.93
2023-02-23T08:35:48.150Z,12.13
2023-02-23T08:38:16.383Z,10.10
2023-02-23T08:40:43.414Z,12.53
2023-02-23T08:43:10.094Z,9.90
2023-02-23T08:45:38.646Z,11.53
2023-02-23T08:48:06.670Z,13.67
2023-02-23T08:50:33.131Z,12.63
2023-02-23T08:52:59.595Z,15.17
2023-02-23T08:55:26.075Z,10.87
2023-02-23T08:57:52.562Z,13.63
2023-02-23T09:00:19.588Z,14.20
2023-02-23T09:02:49.613Z,15.17
2023-02-23T09:05:17.025Z,14.53
2023-02-23T09:07:46.678Z,13.40
2023-02-23T09:10:20.894Z,14.57
2023-02-23T09:12:47.370Z,15.63
2023-02-23T09:15:13.845Z,18.60
2023-02-23T09:17:42.821Z,18.50
2023-02-23T09:20:13.510Z,13.20
2023-02-23T09:22:41.926Z,12.67
2023-02-23T09:25:10.336Z,12.53
2023-02-23T09:27:36.782Z,13.47
2023-02-23T09:30:04.162Z,12.90
2023-02-23T09:32:30.937Z,18.00
2023-02-23T09:34:57.505Z,12.97
2023-02-23T09:37:25.061Z,15.67
2023-02-23T09:39:51.517Z,12.77
2023-02-23T09:42:33.420Z,16.03
2023-02-23T09:45:21.149Z,13.87
2023-02-23T09:48:16.588Z,13.00
2023-02-23T09:50:47.030Z,11.60
2023-02-23T09:53:57.409Z,14.47
2023-02-23T09:56:41.876Z,14.87
2023-02-23T09:59:13.648Z,16.33
2023-02-23T10:01:48.917Z,17.30
2023-02-23T10:04:27.602Z,14.90
2023-02-23T10:07:15.518Z,13.30
2023-02-23T10:09:58.989Z,17.10
2023-02-23T10:12:44.127Z,15.67
2023-02-23T10:15:22.630Z,16.60
2023-02-23T10:18:14.855Z,14.20
2023-02-23T10:20:52.769Z,12.87
2023-02-23T10:23:24.177Z,16.20
2023-02-23T10:25:51.966Z,15.33
2023-02-23T10:28:22.190Z,15.00
2023-02-23T10:30:50.011Z,14.43
2023-02-23T10:33:38.624Z,14.60
2023-02-23T10:36:19.232Z,14.70
2023-02-23T10:38:46.436Z,13.77
2023-02-23T10:41:14.828Z,16.10
2023-02-23T10:43:41.681Z,13.90
2023-02-23T10:46:14.459Z,15.73
2023-02-23T10:48:43.078Z,16.37
2023-02-23T10:51:22.439Z,15.17
2023-02-23T10:53:49.000Z,14.03
2023-02-23T10:56:18.285Z,18.50
2023-02-23T10:58:49.818Z,15.60
2023-02-23T11:01:41.894Z,19.10
2023-02-23T11:04:24.158Z,18.73
2023-02-23T11:06:52.347Z,14.83
2023-02-23T11:09:43.924Z,17.37
2023-02-23T11:12:25.563Z,15.90
2023-02-23T11:14:54.390Z,16.87
2023-02-23T11:17:24.283Z,19.27
2023-02-23T11:19:50.827Z,17.77
2023-02-23T11:22:23.250Z,16.27
2023-02-23T11:24:50.073Z,18.17
2023-02-23T11:27:21.309Z,17.23
2023-02-23T11:29:50.761Z,17.80
2023-02-23T11:32:21.112Z,18.10
2023-02-23T11:34:49.327Z,18.90
2023-02-23T11:37:21.965Z,16.87
2023-02-23T11:39:56.223Z,15.20
2023-02-23T11:42:26.709Z,18.27
2023-02-23T11:45:08.125Z,16.93
2023-02-23T11:47:39.855Z,18.17
2023-02-23T11:50:07.149Z,16.90
2023-02-23T11:52:36.289Z,18.40
2023-02-23T11:55:06.168Z,19.43
2023-02-23T11:57:34.774Z,15.63
2023-02-23T12:00:22.897Z,19.17
2023-02-23T12:02:56.282Z,19.43
2023-02-23T12:05:25.650Z,19.83
2023-02-23T12:08:05.831Z,19.33
2023-02-23T12:10:42.313Z,20.10
2023-02-23T12:13:30.226Z,20.83
2023-02-23T12:16:01.795Z,22.17
2023-02-23T12:18:37.493Z,21.07
2023-02-23T12:21:25.476Z,21.70
2023-02-23T12:24:02.993Z,23.20
2023-02-23T12:26:31.056Z,21.97
2023-02-23T12:29:06.085Z,20.60
2023-02-23T12:32:13.240Z,26.93
2023-02-23T12:34:45.419Z,24.07
2023-02-23T12:37:31.091Z,30.67
2023-02-23T12:40:29.179Z,28.80
2023-02-23T12:43:17.268Z,25.07
2023-02-23T12:45:54.997Z,25.57
2023-02-23T12:48:49.370Z,23.23
2023-02-23T12:51:34.954Z,23.70
2023-02-23T12:54:02.219Z,24.67
2023-02-23T12:56:53.914Z,31.60
2023-02-23T12:59:33.065Z,22.40
2023-02-23T13:02:01.550Z,26.60
2023-02-23T13:04:46.108Z,26.93
2023-02-23T13:07:27.726Z,23.57
2023-02-23T13:10:00.224Z,25.93
2023-02-23T13:12:46.095Z,27.13
2023-02-23T13:15:46.924Z,25.53
2023-02-23T13:18:21.919Z,25.90
2023-02-23T13:21:05.618Z,21.23
2023-02-23T13:24:01.838Z,25.77
2023-02-23T13:26:46.599Z,25.87
2023-02-23T13:29:31.660Z,24.73
2023-02-23T13:32:00.924Z,26.90
2023-02-23T13:34:36.272Z,23.40
2023-02-23T13:37:05.632Z,26.43
2023-02-23T13:40:07.622Z,27.77
2023-02-23T13:42:44.252Z,27.60
2023-02-23T13:45:32.598Z,28.60
2023-02-23T13:48:05.360Z,28.40
2023-02-23T13:50:40.629Z,29.03
2023-02-23T13:53:07.930Z,26.67
2023-02-23T13:55:48.220Z,27.27
2023-02-23T13:58:18.450Z,26.80
2023-02-23T14:00:53.307Z,28.30
2023-02-23T14:03:25.792Z,31.43
2023-02-23T14:05:56.675Z,30.63
2023-02-23T14:08:28.309Z,30.80
2023-02-23T14:10:57.245Z,29.13
2023-02-23T14:13:32.389Z,34.10
2023-02-23T14:16:31.458Z,29.40
2023-02-23T14:19:03.863Z,29.37
2023-02-23T14:21:35.628Z,32.67
2023-02-23T14:24:04.741Z,33.00
2023-02-23T14:26:31.098Z,25.93
2023-02-23T14:29:27.579Z,26.90
2023-02-23T14:32:12.318Z,29.13
2023-02-23T14:34:47.858Z,31.43
2023-02-23T14:37:17.880Z,30.80
2023-02-23T14:39:44.375Z,29.67
2023-02-23T14:42:27.675Z,33.37
2023-02-23T14:44:54.857Z,31.70
2023-02-23T14:47:26.761Z,26.80
2023-02-23T14:49:58.383Z,28.23
2023-02-23T14:52:31.326Z,27.93
2023-02-23T14:55:13.080Z,31.37
2023-02-23T14:57:41.681Z,33.63
2023-02-23T15:00:27.918Z,27.53
2023-02-23T15:02:55.748Z,30.70
2023-02-23T15:05:26.180Z,31.23
2023-02-23T15:07:54.461Z,28.90
2023-02-23T15:10:29.917Z,26.00
2023-02-23T15:12:56.865Z,31.77
2023-02-23T15:15:25.197Z,26.10
2023-02-23T15:17:54.782Z,25.83
2023-02-23T15:20:23.993Z,29.43
2023-02-23T15:22:53.762Z,27.80
2023-02-23T15:25:24.096Z,27.53
2023-02-23T15:27:51.789Z,28.20
2023-02-23T15:30:30.805Z,32.40
2023-02-23T15:33:05.902Z,29.67
2023-02-23T15:35:45.521Z,34.50
2023-02-23T15:38:40.391Z,32.73
2023-02-23T15:41:06.450Z,29.80
2023-02-23T15:43:33.412Z,30.37
2023-02-23T15:46:04.287Z,27.93
2023-02-23T15:48:41.407Z,32.50
2023-02-23T15:51:07.872Z,29.00
2023-02-23T15:53:37.371Z,32.07
2023-02-23T15:56:14.319Z,27.07
2023-02-23T15:58:56.390Z,31.60
2023-02-23T16:01:28.379Z,28.37
2023-02-23T16:03:59.448Z,27.73
2023-02-23T16:06:32.836Z,30.53
2023-02-23T16:09:26.521Z,29.00
2023-02-23T16:12:03.387Z,29.67
2023-02-23T16:14:44.168Z,30.73
2023-02-23T16:17:22.000Z,27.30
2023-02-23T16:19:48.526Z,23.40
2023-02-23T16:22:21.857Z,28.43
2023-02-23T16:25:02.332Z,29.23
2023-02-23T16:27:29.348Z,29.70
2023-02-23T16:30:00.105Z,29.27
2023-02-23T16:32:34.843Z,30.43
2023-02-23T16:35:09.193Z,33.97
2023-02-23T16:38:10.210Z,35.23
2023-02-23T16:40:36.817Z,33.57
2023-02-23T16:43:03.245Z,30.67
2023-02-23T16:45:29.950Z,28.20
2023-02-23T16:48:01.920Z,28.27
2023-02-23T16:50:28.935Z,32.23
2023-02-23T16:52:55.400Z,29.10
2023-02-23T16:55:27.738Z,30.47
2023-02-23T16:57:56.862Z,27.00
2023-02-23T17:00:28.444Z,27.47
2023-02-23T17:02:55.839Z,26.47
2023-02-23T17:05:26.273Z,27.80
2023-02-23T17:07:53.464Z,25.47
2023-02-23T17:10:27.204Z,25.40
2023-02-23T17:12:55.306Z,37.43
2023-02-23T17:15:23.124Z,30.57
2023-02-23T17:17:49.651Z,28.63
2023-02-23T17:20:17.429Z,30.80
2023-02-23T17:22:44.415Z,27.60
2023-02-23T17:25:11.367Z,32.10
2023-02-23T17:27:37.820Z,28.67
2023-02-23T17:30:06.124Z,33.60
2023-02-23T17:32:33.111Z,30.50
2023-02-23T17:34:59.671Z,34.47
2023-02-23T17:37:26.128Z,35.10
2023-02-23T17:39:52.575Z,31.40
2023-02-23T17:42:19.203Z,28.67
2023-02-23T17:44:45.676Z,32.33
2023-02-23T17:47:12.221Z,34.73
2023-02-23T17:49:38.748Z,30.60
2023-02-23T17:52:05.239Z,35.90
2023-02-23T17:54:31.699Z,26.13
2023-02-23T17:56:58.428Z,32.40
2023-02-23T17:59:24.868Z,32.20
2023-02-23T18:01:51.497Z,35.30
2023-02-23T18:04:17.956Z,33.00
2023-02-23T18:06:44.652Z,34.57
2023-02-23T18:09:14.350Z,29.30
2023-02-23T18:11:40.876Z,32.43
2023-02-23T18:14:09.396Z,33.17
2023-02-23T18:16:35.856Z,29.83
2023-02-23T18:19:02.307Z,37.10
2023-02-23T18:21:29.067Z,32.63
2023-02-23T18:23:55.734Z,35.17
2023-02-23T18:26:23.790Z,39.40
2023-02-23T18:28:51.051Z,35.83
2023-02-23T18:31:19.796Z,31.73
2023-02-23T18:33:47.826Z,33.70
2023-02-23T18:36:22.666Z,28.63
2023-02-23T18:38:49.281Z,27.33
2023-02-23T18:41:16.024Z,26.63
2023-02-23T18:43:42.625Z,31.20
2023-02-23T18:46:10.871Z,28.67
2023-02-23T18:48:38.290Z,33.87
2023-02-23T18:51:05.902Z,31.50
2023-02-23T18:53:37.117Z,30.33
2023-02-23T18:56:05.896Z,30.83
2023-02-23T18:58:33.350Z,33.50
2023-02-23T19:01:00.155Z,33.50
2023-02-23T19:03:26.669Z,32.47
2023-02-23T19:05:53.213Z,28.77
2023-02-23T19:08:20.469Z,29.43
2023-02-23T19:10:47.662Z,34.53
2023-02-23T19:13:14.691Z,34.53
2023-02-23T19:15:41.381Z,39.27
2023-02-23T19:18:07.813Z,38.03
2023-02-23T19:20:35.741Z,30.33
2023-02-23T19:23:05.958Z,32.47
2023-02-23T19:25:32.542Z,27.93
2023-02-23T19:27:59.063Z,31.40
2023-02-23T19:30:25.561Z,25.80
2023-02-23T19:32:52.211Z,27.23
2023-02-23T19:35:19.290Z,26.67
2023-02-23T19:37:50.739Z,28.63
2023-02-23T19:40:22.615Z,32.83
2023-02-23T19:42:50.229Z,29.70
2023-02-23T19:45:17.738Z,37.20
2023-02-23T19:47:44.511Z,33.03
2023-02-23T19:50:18.786Z,34.93
2023-02-23T19:52:46.289Z,36.30
2023-02-23T19:55:12.988Z,35.53
2023-02-23T19:57:40.249Z,37.77
2023-02-23T20:00:11.451Z,34.20
2023-02-23T20:02:42.522Z,42.47
2023-02-23T20:05:13.548Z,31.10
2023-02-23T20:07:40.213Z,38.73
2023-02-23T20:10:08.249Z,37.77
2023-02-23T20:12:35.386Z,35.73
2023-02-23T20:15:02.143Z,35.80
2023-02-23T20:17:29.160Z,39.10
2023-02-23T20:19:55.614Z,34.03
2023-02-23T20:22:22.060Z,32.60
2023-02-23T20:24:49.403Z,42.43
2023-02-23T20:27:15.843Z,40.23
2023-02-23T20:29:42.274Z,36.53
2023-02-23T20:32:08.855Z,35.93
2023-02-23T20:34:35.624Z,42.20
2023-02-23T20:37:04.230Z,35.83
2023-02-23T20:39:30.776Z,39.90
2023-02-23T20:41:57.201Z,38.80
2023-02-23T20:44:24.095Z,37.80
2023-02-23T20:46:50.638Z,40.93
2023-02-23T20:49:18.682Z,37.07
2023-02-23T20:51:47.133Z,38.47
2023-02-23T20:54:13.894Z,34.10
2023-02-23T20:56:41.613Z,40.97
2023-02-23T20:59:11.680Z,43.73
2023-02-23T21:01:40.483Z,41.37
2023-02-23T21:04:07.469Z,39.10
2023-02-23T21:06:33.975Z,41.17
2023-02-23T21:09:04.539Z,44.80
2023-02-23T21:11:31.840Z,34.00
2023-02-23T21:13:59.443Z,41.43
2023-02-23T21:16:27.713Z,38.10
2023-02-23T21:19:03.752Z,40.03
2023-02-23T21:22:02.748Z,37.40
2023-02-23T21:24:33.679Z,35.57
2023-02-23T21:27:01.781Z,37.37
2023-02-23T21:29:28.263Z,39.27
2023-02-23T21:31:54.928Z,36.57
2023-02-23T21:34:21.505Z,35.53
2023-02-23T21:36:49.843Z,35.20
2023-02-23T21:39:16.297Z,41.10
2023-02-23T21:41:42.775Z,34.13
2023-02-23T21:44:09.295Z,42.60
2023-02-23T21:46:35.865Z,39.50
2023-02-23T21:49:09.434Z,31.70
2023-02-23T21:51:36.514Z,36.83
2023-02-23T21:54:03.069Z,33.23
2023-02-23T21:56:29.635Z,27.17
2023-02-23T21:58:56.226Z,33.63
2023-02-23T22:01:25.580Z,31.37
2023-02-23T22:03:54.726Z,31.57
2023-02-23T22:06:23.703Z,38.47
2023-02-23T22:08:50.503Z,32.37
2023-02-23T22:11:20.016Z,31.00
2023-02-23T22:13:48.337Z,31.73
2023-02-23T22:16:19.386Z,38.57
2023-02-23T22:18:46.355Z,33.30
2023-02-23T22:21:13.101Z,35.70
2023-02-23T22:23:47.892Z,32.07
2023-02-23T22:26:14.635Z,38.40
2023-02-23T22:28:41.080Z,35.23
2023-02-23T22:31:10.954Z,29.40
2023-02-23T22:33:40.379Z,32.77
2023-02-23T22:36:11.220Z,38.80
2023-02-23T22:38:37.966Z,35.27
2023-02-23T22:41:10.438Z,31.47
2023-02-23T22:43:41.803Z,33.43
2023-02-23T22:46:08.633Z,39.53
2023-02-23T22:48:35.866Z,33.23
2023-02-23T22:51:02.962Z,37.80
2023-02-23T22:53:29.476Z,35.70
2023-02-23T22:55:56.283Z,40.10
2023-02-23T22:58:24.031Z,31.17
2023-02-23T23:01:09.790Z,31.57
2023-02-23T23:03:47.302Z,36.33
2023-02-23T23:06:21.841Z,37.13
2023-02-23T23:08:49.878Z,35.13
2023-02-23T23:11:19.597Z,35.97
2023-02-23T23:13:48.644Z,41.53
2023-02-23T23:16:31.221Z,38.13
2023-02-23T23:19:03.686Z,35.90
2023-02-23T23:21:32.743Z,34.53
2023-02-23T23:24:01.545Z,32.70
2023-02-23T23:26:28.804Z,32.60
2023-02-23T23:28:57.781Z,36.07
2023-02-23T23:31:29.509Z,36.50
2023-02-23T23:34:01.464Z,33.60
2023-02-23T23:36:33.717Z,42.67
2023-02-23T23:39:01.401Z,37.93
2023-02-23T23:41:29.435Z,33.70
2023-02-23T23:43:58.144Z,35.43
2023-02-23T23:46:35.544Z,33.87
2023-02-23T23:49:08.025Z,35.23
2023-02-23T23:51:48.572Z,41.13
2023-02-23T23:54:22.157Z,39.20
2023-02-23T23:56:49.756Z,35.40
2023-02-23T23:59:17.935Z,43.43
